createdAt,value
2023-05-20T00:00:53.254Z,102031.47
2023-05-20T00:03:20.669Z,102033.41
2023-05-20T00:05:47.703Z,102039.03
2023-05-20T00:08:15.506Z,102042.88
2023-05-20T00:10:42.307Z,102036.75
2023-05-20T00:13:09.134Z,102040.63
2023-05-20T00:15:36.782Z,102034.53
2023-05-20T00:18:04.660Z,102031.03
2023-05-20T00:20:32.946Z,102031.19
2023-05-20T00:22:59.952Z,102031.41
2023-05-20T00:25:26.882Z,102037.00
2023-05-20T00:27:53.788Z,102026.34
2023-05-20T00:30:20.855Z,102035.44
2023-05-20T00:32:48.136Z,102032.13
2023-05-20T00:35:15.105Z,102034.06
2023-05-20T00:37:42.196Z,102032.50
2023-05-20T00:40:09.546Z,102030.91
2023-05-20T00:42:36.478Z,102031.13
2023-05-20T00:45:03.817Z,102031.28
2023-05-20T00:47:34.437Z,102024.31
2023-05-20T00:50:03.490Z,102019.94
2023-05-20T00:52:32.841Z,102019.06
2023-05-20T00:55:00.256Z,102019.22
2023-05-20T00:57:27.693Z,102014.88
2023-05-20T00:59:55.686Z,102025.03
2023-05-20T01:02:23.191Z,102019.84
2023-05-20T01:04:50.682Z,102017.34
2023-05-20T01:07:19.329Z,102025.56
2023-05-20T01:09:46.562Z,102023.00
2023-05-20T01:12:18.183Z,102018.75
2023-05-20T01:15:04.277Z,102025.22
2023-05-20T01:17:33.356Z,102019.09
2023-05-20T01:20:04.173Z,102017.50
2023-05-20T01:22:31.569Z,102021.19
2023-05-20T01:24:58.516Z,102017.88
2023-05-20T01:27:26.599Z,102017.97
2023-05-20T01:29:54.307Z,102014.38
2023-05-20T01:32:43.027Z,102012.81
2023-05-20T01:35:11.110Z,102012.97
2023-05-20T01:37:41.341Z,102002.28
2023-05-20T01:40:11.627Z,102004.22
2023-05-20T01:42:41.072Z,102006.13
2023-05-20T01:45:08.508Z,101991.97
2023-05-20T01:47:35.377Z,101993.91
2023-05-20T01:50:02.334Z,101995.03
2023-05-20T01:52:29.362Z,101999.66
2023-05-20T01:54:57.107Z,101994.41
2023-05-20T01:57:24.381Z,102003.50
2023-05-20T01:59:52.452Z,101996.34
2023-05-20T02:02:19.462Z,101998.25
2023-05-20T02:04:48.892Z,101993.88
2023-05-20T02:07:18.793Z,101990.38
2023-05-20T02:09:47.126Z,101993.19
2023-05-20T02:12:17.780Z,101992.38
2023-05-20T02:14:47.658Z,101988.91
2023-05-20T02:17:17.830Z,101994.31
2023-05-20T02:19:46.188Z,101991.59
2023-05-20T02:22:14.492Z,101989.88
2023-05-20T02:24:43.682Z,101984.63
2023-05-20T02:27:10.855Z,101983.84
2023-05-20T02:29:37.699Z,101988.25
2023-05-20T02:32:05.303Z,101988.38
2023-05-20T02:34:33.273Z,101983.03
2023-05-20T02:37:00.345Z,101981.28
2023-05-20T02:39:28.534Z,101983.22
2023-05-20T02:41:56.344Z,101980.66
2023-05-20T02:44:23.380Z,101979.88
2023-05-20T02:46:50.274Z,101979.09
2023-05-20T02:49:17.153Z,101974.66
2023-05-20T02:51:44.242Z,101978.38
2023-05-20T02:54:11.117Z,101971.31
2023-05-20T02:56:38.062Z,101977.66
2023-05-20T02:59:07.171Z,101976.88
2023-05-20T03:01:35.564Z,101982.44
2023-05-20T03:04:03.813Z,101966.41
2023-05-20T03:06:31.968Z,101971.81
2023-05-20T03:08:59.518Z,101973.75
2023-05-20T03:11:26.458Z,101969.34
2023-05-20T03:13:53.409Z,101968.50
2023-05-20T03:16:20.386Z,101970.41
2023-05-20T03:18:47.388Z,101971.41
2023-05-20T03:21:14.304Z,101972.47
2023-05-20T03:23:41.387Z,101960.09
2023-05-20T03:26:08.614Z,101973.75
2023-05-20T03:28:36.533Z,101971.19
2023-05-20T03:31:04.502Z,101976.78
2023-05-20T03:33:34.661Z,101978.72
2023-05-20T03:36:01.867Z,101984.25
2023-05-20T03:38:29.293Z,101983.56
2023-05-20T03:40:56.232Z,101988.97
2023-05-20T03:43:23.221Z,101984.59
2023-05-20T03:45:51.159Z,101986.47
2023-05-20T03:48:17.963Z,101979.34
2023-05-20T03:50:44.854Z,101979.50
2023-05-20T03:53:11.737Z,101977.75
2023-05-20T03:55:42.496Z,101971.56
2023-05-20T03:58:13.731Z,101978.78
2023-05-20T04:00:41.782Z,101985.22
2023-05-20T04:03:08.948Z,101968.16
2023-05-20T04:05:37.229Z,101977.13
2023-05-20T04:08:09.934Z,101969.97
2023-05-20T04:10:36.979Z,101969.03
2023-05-20T04:13:04.461Z,101967.25
2023-05-20T04:15:31.569Z,101973.44
2023-05-20T04:18:01.361Z,101968.53
2023-05-20T04:20:29.024Z,101968.81
2023-05-20T04:22:57.981Z,101970.22
2023-05-20T04:25:26.197Z,101975.09
2023-05-20T04:27:54.269Z,101976.25
2023-05-20T04:30:22.049Z,101977.47
2023-05-20T04:32:50.906Z,101985.19
2023-05-20T04:35:18.385Z,101977.09
2023-05-20T04:37:48.142Z,101980.56
2023-05-20T04:40:15.226Z,101993.78
2023-05-20T04:42:43.702Z,101985.63
2023-05-20T04:45:12.518Z,101986.25
2023-05-20T04:47:41.898Z,101990.31
2023-05-20T04:50:11.253Z,101989.31
2023-05-20T04:52:41.948Z,101985.94
2023-05-20T04:55:10.707Z,101989.41
2023-05-20T04:57:41.650Z,101984.56
2023-05-20T05:00:11.385Z,101984.56
2023-05-20T05:02:40.730Z,101979.66
2023-05-20T05:05:08.702Z,101978.44
2023-05-20T05:07:36.145Z,101977.75
2023-05-20T05:10:03.086Z,101976.84
2023-05-20T05:12:31.676Z,101977.38
2023-05-20T05:14:59.349Z,101968.75
2023-05-20T05:17:28.770Z,101967.16
2023-05-20T05:19:56.895Z,101972.88
2023-05-20T05:22:23.838Z,101972.03
2023-05-20T05:24:51.538Z,101969.31
2023-05-20T05:27:18.677Z,101966.59
2023-05-20T05:29:45.499Z,101964.28
2023-05-20T05:32:12.466Z,101968.38
2023-05-20T05:34:39.348Z,101969.53
2023-05-20T05:37:06.303Z,101968.66
2023-05-20T05:39:34.650Z,101973.78
2023-05-20T05:42:01.473Z,101979.41
2023-05-20T05:44:28.346Z,101980.53
2023-05-20T05:46:55.342Z,101978.78
2023-05-20T05:49:22.396Z,101978.69
2023-05-20T05:51:51.396Z,101970.41
2023-05-20T05:54:20.533Z,101972.53
2023-05-20T05:56:48.036Z,101972.63
2023-05-20T05:59:16.238Z,101965.31
2023-05-20T06:01:44.013Z,101958.03
2023-05-20T06:04:11.032Z,101974.38
2023-05-20T06:06:38.795Z,101960.16
2023-05-20T06:09:05.955Z,101963.47
2023-05-20T06:11:33.308Z,101968.47
2023-05-20T06:14:01.769Z,101964.03
2023-05-20T06:16:28.687Z,101962.38
2023-05-20T06:18:57.249Z,101967.72
2023-05-20T06:21:24.471Z,101964.03
2023-05-20T06:23:51.320Z,101959.09
2023-05-20T06:26:18.681Z,101958.50
2023-05-20T06:28:45.585Z,101953.19
2023-05-20T06:31:12.501Z,101950.34
2023-05-20T06:33:40.378Z,101947.91
2023-05-20T06:36:11.494Z,101948.72
2023-05-20T06:38:38.495Z,101942.53
2023-05-20T06:41:06.065Z,101943.28
2023-05-20T06:43:34.302Z,101944.03
2023-05-20T06:46:21.171Z,101932.97
2023-05-20T06:48:54.364Z,101939.16
2023-05-20T06:51:22.580Z,101921.38
2023-05-20T06:53:50.537Z,101929.88
2023-05-20T06:56:17.405Z,101923.66
2023-05-20T06:58:44.363Z,101935.13
2023-05-20T07:01:11.709Z,101924.63
2023-05-20T07:03:41.102Z,101925.72
2023-05-20T07:06:08.151Z,101923.97
2023-05-20T07:08:35.350Z,101926.44
2023-05-20T07:11:02.414Z,101934.09
2023-05-20T07:13:30.992Z,101920.88
2023-05-20T07:15:58.769Z,101923.25
2023-05-20T07:18:26.704Z,101919.09
2023-05-20T07:20:57.103Z,101928.38
2023-05-20T07:23:46.970Z,101934.81
2023-05-20T07:26:13.903Z,101936.06
2023-05-20T07:28:41.555Z,101924.09
2023-05-20T07:31:08.436Z,101924.41
2023-05-20T07:33:41.971Z,101916.44
2023-05-20T07:36:11.075Z,101913.44
2023-05-20T07:38:40.990Z,101917.75
2023-05-20T07:41:09.247Z,101924.63
2023-05-20T07:43:37.113Z,101913.22
2023-05-20T07:46:04.838Z,101905.44
2023-05-20T07:48:31.726Z,101900.94
2023-05-20T07:50:59.732Z,101911.59
2023-05-20T07:53:28.022Z,101907.56
2023-05-20T07:55:56.331Z,101908.66
2023-05-20T07:58:24.732Z,101902.88
2023-05-20T08:00:51.790Z,101901.66
2023-05-20T08:03:19.538Z,101903.75
2023-05-20T08:06:15.856Z,101896.16
2023-05-20T08:08:43.887Z,101897.81
2023-05-20T08:11:18.697Z,101898.69
2023-05-20T08:13:45.855Z,101895.63
2023-05-20T08:16:12.770Z,101885.03
2023-05-20T08:18:39.878Z,101892.75
2023-05-20T08:21:10.540Z,101900.09
2023-05-20T08:23:39.651Z,101887.03
2023-05-20T08:26:08.051Z,101900.44
2023-05-20T08:28:38.213Z,101902.75
2023-05-20T08:31:05.751Z,101889.19
2023-05-20T08:33:33.302Z,101886.44
2023-05-20T08:36:00.838Z,101887.66
2023-05-20T08:38:28.839Z,101872.81
2023-05-20T08:40:57.479Z,101864.06
2023-05-20T08:43:26.024Z,101887.06
2023-05-20T08:45:53.198Z,101876.66
2023-05-20T08:48:25.753Z,101872.59
2023-05-20T08:50:55.969Z,101861.91
2023-05-20T08:53:23.262Z,101869.84
2023-05-20T08:56:00.860Z,101862.47
2023-05-20T08:58:35.659Z,101868.47
2023-05-20T09:01:03.103Z,101870.41
2023-05-20T09:03:30.543Z,101866.47
2023-05-20T09:06:06.613Z,101867.41
2023-05-20T09:08:34.253Z,101886.56
2023-05-20T09:11:01.971Z,101857.91
2023-05-20T09:13:32.840Z,101847.84
2023-05-20T09:16:02.065Z,101850.59
2023-05-20T09:18:30.029Z,101862.53
2023-05-20T09:20:57.490Z,101849.97
2023-05-20T09:23:28.018Z,101864.06
2023-05-20T09:25:54.911Z,101852.81
2023-05-20T09:28:27.672Z,101859.22
2023-05-20T09:31:01.505Z,101849.94
2023-05-20T09:33:30.615Z,101843.75
2023-05-20T09:36:07.774Z,101838.94
2023-05-20T09:38:39.368Z,101838.78
2023-05-20T09:41:10.606Z,101846.03
2023-05-20T09:43:40.237Z,101843.81
2023-05-20T09:46:08.476Z,101839.91
2023-05-20T09:48:38.483Z,101843.66
2023-05-20T09:51:07.950Z,101848.81
2023-05-20T09:53:35.960Z,101843.69
2023-05-20T09:56:03.167Z,101839.75
2023-05-20T09:58:31.197Z,101834.69
2023-05-20T10:00:59.009Z,101841.84
2023-05-20T10:03:34.301Z,101838.34
2023-05-20T10:06:10.163Z,101843.66
2023-05-20T10:09:17.507Z,101831.09
2023-05-20T10:12:16.592Z,101829.63
2023-05-20T10:14:52.336Z,101817.09
2023-05-20T10:17:54.623Z,101820.88
2023-05-20T10:20:21.860Z,101823.16
2023-05-20T10:22:58.801Z,101819.69
2023-05-20T10:25:28.630Z,101816.69
2023-05-20T10:28:11.370Z,101813.13
2023-05-20T10:30:39.133Z,101811.81
2023-05-20T10:33:07.857Z,101801.56
2023-05-20T10:35:34.955Z,101807.72
2023-05-20T10:38:13.391Z,101791.19
2023-05-20T10:40:40.977Z,101798.47
2023-05-20T10:43:14.192Z,101796.78
2023-05-20T10:45:55.809Z,101789.13
2023-05-20T10:48:29.713Z,101791.84
2023-05-20T10:50:59.749Z,101790.63
2023-05-20T10:53:38.388Z,101791.84
2023-05-20T10:56:06.667Z,101801.13
2023-05-20T10:58:40.436Z,101779.63
2023-05-20T11:01:08.025Z,101780.50
2023-05-20T11:03:36.324Z,101788.94
2023-05-20T11:06:12.668Z,101782.63
2023-05-20T11:08:39.731Z,101782.63
2023-05-20T11:11:07.633Z,101766.81
2023-05-20T11:13:34.523Z,101777.34
2023-05-20T11:16:03.075Z,101776.97
2023-05-20T11:18:30.488Z,101778.78
2023-05-20T11:21:02.306Z,101775.56
2023-05-20T11:23:30.249Z,101772.03
2023-05-20T11:25:57.964Z,101773.97
2023-05-20T11:28:25.724Z,101771.28
2023-05-20T11:30:53.980Z,101765.41
2023-05-20T11:33:21.038Z,101770.25
2023-05-20T11:35:52.181Z,101768.81
2023-05-20T11:38:20.770Z,101775.50
2023-05-20T11:40:54.141Z,101765.59
2023-05-20T11:43:23.286Z,101761.94
2023-05-20T11:45:56.721Z,101755.63
2023-05-20T11:48:24.722Z,101764.25
2023-05-20T11:50:54.851Z,101753.50
2023-05-20T11:53:23.922Z,101764.03
2023-05-20T11:55:53.944Z,101753.00
2023-05-20T11:58:29.590Z,101749.91
2023-05-20T12:01:09.054Z,101755.69
2023-05-20T12:03:45.943Z,101745.56
2023-05-20T12:06:13.648Z,101739.19
2023-05-20T12:08:40.663Z,101730.41
2023-05-20T12:11:07.586Z,101733.13
2023-05-20T12:13:35.462Z,101729.66
2023-05-20T12:16:02.767Z,101736.38
2023-05-20T12:18:29.627Z,101722.56
2023-05-20T12:20:56.453Z,101727.22
2023-05-20T12:23:23.230Z,101722.34
2023-05-20T12:25:50.265Z,101722.19
2023-05-20T12:28:17.797Z,101722.84
2023-05-20T12:30:44.623Z,101720.56
2023-05-20T12:33:11.706Z,101721.56
2023-05-20T12:35:40.560Z,101714.53
2023-05-20T12:38:08.473Z,101723.94
2023-05-20T12:40:36.841Z,101712.66
2023-05-20T12:43:05.304Z,101713.69
2023-05-20T12:45:32.205Z,101716.47
2023-05-20T12:47:59.644Z,101716.91
2023-05-20T12:50:28.385Z,101713.84
2023-05-20T12:52:55.287Z,101705.19
2023-05-20T12:55:22.226Z,101713.84
2023-05-20T12:57:50.165Z,101722.81
2023-05-20T13:00:17.812Z,101716.50
2023-05-20T13:02:44.824Z,101712.22
2023-05-20T13:05:12.313Z,101722.56
2023-05-20T13:07:39.401Z,101723.63
2023-05-20T13:10:07.631Z,101718.53
2023-05-20T13:12:35.396Z,101725.34
2023-05-20T13:15:03.222Z,101723.22
2023-05-20T13:17:30.974Z,101718.78
2023-05-20T13:19:58.363Z,101711.63
2023-05-20T13:22:25.205Z,101712.03
2023-05-20T13:24:52.063Z,101704.53
2023-05-20T13:27:18.894Z,101708.25
2023-05-20T13:29:46.082Z,101706.81
2023-05-20T13:32:12.956Z,101700.25
2023-05-20T13:34:39.926Z,101703.50
2023-05-20T13:37:06.966Z,101700.53
2023-05-20T13:39:34.154Z,101710.78
2023-05-20T13:42:01.126Z,101699.25
2023-05-20T13:44:28.009Z,101698.47
2023-05-20T13:46:54.845Z,101694.78
2023-05-20T13:49:22.309Z,101690.00
2023-05-20T13:51:49.195Z,101687.28
2023-05-20T13:54:16.001Z,101678.34
2023-05-20T13:56:43.048Z,101673.16
2023-05-20T13:59:10.030Z,101674.06
2023-05-20T14:01:39.045Z,101672.75
2023-05-20T14:04:07.426Z,101669.09
2023-05-20T14:06:34.347Z,101671.47
2023-05-20T14:09:03.243Z,101660.66
2023-05-20T14:11:30.050Z,101652.56
2023-05-20T14:13:56.890Z,101649.75
2023-05-20T14:16:23.929Z,101649.38
2023-05-20T14:18:50.886Z,101654.50
2023-05-20T14:21:17.876Z,101650.06
2023-05-20T14:23:45.199Z,101658.50
2023-05-20T14:26:12.134Z,101644.72
2023-05-20T14:28:39.578Z,101644.50
2023-05-20T14:31:08.922Z,101643.81
2023-05-20T14:33:36.803Z,101638.38
2023-05-20T14:36:04.297Z,101632.53
2023-05-20T14:38:31.325Z,101631.09
2023-05-20T14:40:58.288Z,101632.47
2023-05-20T14:43:25.860Z,101626.63
2023-05-20T14:45:53.063Z,101628.72
2023-05-20T14:48:19.991Z,101622.84
2023-05-20T14:50:49.026Z,101615.66
2023-05-20T14:53:17.447Z,101619.78
2023-05-20T14:55:44.383Z,101620.41
2023-05-20T14:58:11.667Z,101615.91
2023-05-20T15:00:39.326Z,101618.19
2023-05-20T15:03:06.674Z,101616.81
2023-05-20T15:05:33.837Z,101612.00
2023-05-20T15:08:00.765Z,101606.97
2023-05-20T15:10:27.674Z,101603.84
2023-05-20T15:12:54.932Z,101593.19
2023-05-20T15:15:21.883Z,101598.16
2023-05-20T15:17:48.808Z,101598.34
2023-05-20T15:20:15.785Z,101597.34
2023-05-20T15:22:45.789Z,101590.81
2023-05-20T15:25:12.791Z,101585.84
2023-05-20T15:27:44.505Z,101583.94
2023-05-20T15:30:12.001Z,101590.25
2023-05-20T15:32:39.993Z,101589.28
2023-05-20T15:35:07.618Z,101586.50
2023-05-20T15:37:34.657Z,101596.63
2023-05-20T15:40:01.523Z,101591.47
2023-05-20T15:42:28.388Z,101583.31
2023-05-20T15:44:55.995Z,101584.38
2023-05-20T15:47:23.438Z,101574.09
2023-05-20T15:49:50.902Z,101573.06
2023-05-20T15:52:17.864Z,101565.13
2023-05-20T15:54:44.663Z,101564.81
2023-05-20T15:57:11.724Z,101561.06
2023-05-20T15:59:38.645Z,101559.16
2023-05-20T16:02:05.595Z,101562.28
2023-05-20T16:04:32.632Z,101562.59
2023-05-20T16:06:59.739Z,101556.69
2023-05-20T16:09:26.526Z,101559.69
2023-05-20T16:11:53.380Z,101554.72
2023-05-20T16:14:20.534Z,101552.00
2023-05-20T16:16:47.526Z,101551.19
2023-05-20T16:19:14.604Z,101553.72
2023-05-20T16:21:41.450Z,101559.63
2023-05-20T16:24:08.295Z,101559.94
2023-05-20T16:26:35.427Z,101548.84
2023-05-20T16:29:02.368Z,101550.06
2023-05-20T16:31:29.265Z,101546.56
2023-05-20T16:33:56.438Z,101549.97
2023-05-20T16:36:23.772Z,101548.63
2023-05-20T16:38:50.536Z,101540.53
2023-05-20T16:41:17.428Z,101546.47
2023-05-20T16:43:44.256Z,101548.91
2023-05-20T16:46:12.873Z,101552.69
2023-05-20T16:48:40.262Z,101546.47
2023-05-20T16:51:07.072Z,101545.25
2023-05-20T16:53:33.943Z,101546.94
2023-05-20T16:56:00.942Z,101553.72
2023-05-20T16:58:27.750Z,101551.72
2023-05-20T17:00:55.315Z,101555.97
2023-05-20T17:03:22.492Z,101557.53
2023-05-20T17:05:49.584Z,101557.84
2023-05-20T17:08:16.748Z,101552.56
2023-05-20T17:10:44.075Z,101549.81
2023-05-20T17:13:10.872Z,101552.13
2023-05-20T17:15:37.668Z,101546.03
2023-05-20T17:18:04.653Z,101548.63
2023-05-20T17:20:32.273Z,101553.25
2023-05-20T17:22:59.320Z,101554.59
2023-05-20T17:25:26.190Z,101571.78
2023-05-20T17:27:53.091Z,101573.34
2023-05-20T17:30:20.034Z,101576.00
2023-05-20T17:32:47.039Z,101583.13
2023-05-20T17:35:14.102Z,101581.84
2023-05-20T17:37:41.397Z,101592.09
2023-05-20T17:40:09.222Z,101593.13
2023-05-20T17:42:36.113Z,101592.81
2023-05-20T17:45:02.971Z,101580.69
2023-05-20T17:47:29.807Z,101592.50
2023-05-20T17:49:56.692Z,101598.84
2023-05-20T17:52:23.539Z,101595.69
2023-05-20T17:54:50.542Z,101599.91
2023-05-20T17:57:17.578Z,101593.13
2023-05-20T17:59:45.513Z,101603.53
2023-05-20T18:02:12.711Z,101604.38
2023-05-20T18:04:41.413Z,101597.47
2023-05-20T18:07:08.411Z,101605.13
2023-05-20T18:09:35.635Z,101602.13
2023-05-20T18:12:02.474Z,101606.13
2023-05-20T18:14:29.334Z,101601.53
2023-05-20T18:16:57.536Z,101600.72
2023-05-20T18:19:25.147Z,101593.50
2023-05-20T18:21:52.330Z,101593.81
2023-05-20T18:24:20.528Z,101592.50
2023-05-20T18:26:47.609Z,101591.06
2023-05-20T18:29:14.607Z,101586.53
2023-05-20T18:31:43.498Z,101590.13
2023-05-20T18:34:10.837Z,101589.69
2023-05-20T18:36:37.879Z,101579.31
2023-05-20T18:39:04.886Z,101579.00
2023-05-20T18:41:39.435Z,101578.41
2023-05-20T18:44:15.629Z,101590.94
2023-05-20T18:46:43.119Z,101600.41
2023-05-20T18:49:12.982Z,101592.47
2023-05-20T18:51:41.073Z,101602.84
2023-05-20T18:54:16.149Z,101593.31
2023-05-20T18:56:43.004Z,101593.88
2023-05-20T18:59:09.854Z,101596.16
2023-05-20T19:01:36.937Z,101589.63
2023-05-20T19:04:03.879Z,101587.47
2023-05-20T19:06:31.878Z,101598.06
2023-05-20T19:08:58.802Z,101593.03
2023-05-20T19:11:25.706Z,101593.38
2023-05-20T19:13:52.494Z,101594.66
2023-05-20T19:16:19.901Z,101592.47
2023-05-20T19:18:47.591Z,101600.22
2023-05-20T19:21:14.526Z,101606.47
2023-05-20T19:23:41.522Z,101599.81
2023-05-20T19:26:08.973Z,101606.81
2023-05-20T19:28:35.939Z,101610.09
2023-05-20T19:31:02.904Z,101612.34
2023-05-20T19:33:29.784Z,101619.06
2023-05-20T19:35:57.878Z,101613.97
2023-05-20T19:38:24.869Z,101617.13
2023-05-20T19:40:51.793Z,101620.22
2023-05-20T19:43:18.802Z,101620.75
2023-05-20T19:45:45.753Z,101616.41
2023-05-20T19:48:12.703Z,101627.59
2023-05-20T19:50:39.552Z,101625.88
2023-05-20T19:53:07.563Z,101633.06
2023-05-20T19:55:36.276Z,101624.88
2023-05-20T19:58:03.518Z,101624.88
2023-05-20T20:00:30.409Z,101618.66
2023-05-20T20:02:57.758Z,101619.66
2023-05-20T20:05:25.980Z,101621.53
2023-05-20T20:07:53.177Z,101609.75
2023-05-20T20:10:20.006Z,101608.03
2023-05-20T20:12:46.848Z,101609.13
2023-05-20T20:15:14.254Z,101615.47
2023-05-20T20:17:45.398Z,101617.19
2023-05-20T20:20:15.554Z,101616.34
2023-05-20T20:22:42.447Z,101612.00
2023-05-20T20:25:09.407Z,101619.31
2023-05-20T20:27:36.217Z,101613.13
2023-05-20T20:30:03.506Z,101614.25
2023-05-20T20:32:30.382Z,101619.19
2023-05-20T20:34:58.030Z,101611.25
2023-05-20T20:37:26.814Z,101618.72
2023-05-20T20:39:57.153Z,101617.22
2023-05-20T20:42:23.952Z,101608.56
2023-05-20T20:44:52.634Z,101614.25
2023-05-20T20:47:19.530Z,101602.75
2023-05-20T20:49:46.368Z,101606.47
2023-05-20T20:52:13.389Z,101614.66
2023-05-20T20:54:42.181Z,101620.00
2023-05-20T20:57:10.115Z,101618.25
2023-05-20T20:59:36.963Z,101610.81
2023-05-20T21:02:04.507Z,101612.78
2023-05-20T21:04:32.866Z,101613.94
2023-05-20T21:07:02.097Z,101614.16
2023-05-20T21:09:29.180Z,101610.72
2023-05-20T21:11:57.181Z,101608.09
2023-05-20T21:14:24.608Z,101613.78
2023-05-20T21:16:51.606Z,101609.47
2023-05-20T21:19:18.549Z,101601.69
2023-05-20T21:21:45.568Z,101602.19
2023-05-20T21:24:12.474Z,101595.38
2023-05-20T21:26:39.397Z,101596.88
2023-05-20T21:29:07.528Z,101593.00
2023-05-20T21:31:42.546Z,101586.59
2023-05-20T21:34:09.398Z,101580.88
2023-05-20T21:36:36.304Z,101579.66
2023-05-20T21:39:03.562Z,101581.13
2023-05-20T21:41:30.360Z,101568.09
2023-05-20T21:43:57.190Z,101574.16
2023-05-20T21:46:24.091Z,101578.13
2023-05-20T21:48:50.962Z,101576.75
2023-05-20T21:51:17.876Z,101570.91
2023-05-20T21:53:44.712Z,101567.94
2023-05-20T21:56:11.625Z,101573.84
2023-05-20T21:58:41.240Z,101578.03
2023-05-20T22:01:11.566Z,101581.00
2023-05-20T22:03:47.950Z,101567.84
2023-05-20T22:06:17.095Z,101576.50
2023-05-20T22:08:43.914Z,101565.09
2023-05-20T22:11:10.722Z,101567.31
2023-05-20T22:13:41.467Z,101567.78
2023-05-20T22:16:09.277Z,101567.28
2023-05-20T22:18:36.262Z,101565.88
2023-05-20T22:21:04.033Z,101560.94
2023-05-20T22:23:31.091Z,101558.53
2023-05-20T22:25:58.122Z,101558.00
2023-05-20T22:28:26.273Z,101559.47
2023-05-20T22:30:53.134Z,101559.78
2023-05-20T22:33:19.965Z,101554.69
2023-05-20T22:35:46.964Z,101554.03
2023-05-20T22:38:13.858Z,101552.31
2023-05-20T22:40:41.112Z,101564.28
2023-05-20T22:43:07.939Z,101555.38
2023-05-20T22:45:34.968Z,101562.78
2023-05-20T22:48:03.779Z,101546.72
2023-05-20T22:50:30.867Z,101548.66
2023-05-20T22:52:57.715Z,101544.44
2023-05-20T22:55:24.541Z,101544.69
2023-05-20T22:57:51.421Z,101536.75
2023-05-20T23:00:18.509Z,101535.25
2023-05-20T23:02:50.023Z,101534.59
2023-05-20T23:05:17.478Z,101523.09
2023-05-20T23:07:44.980Z,101524.16
2023-05-20T23:10:12.022Z,101523.53
2023-05-20T23:12:39.118Z,101518.34
2023-05-20T23:15:06.892Z,101519.31
2023-05-20T23:17:33.755Z,101520.28
2023-05-20T23:20:01.030Z,101516.94
2023-05-20T23:22:27.816Z,101516.06
2023-05-20T23:24:54.708Z,101517.06
2023-05-20T23:27:21.520Z,101512.59
2023-05-20T23:29:48.393Z,101506.31
2023-05-20T23:32:15.348Z,101503.78
2023-05-20T23:34:43.531Z,101514.75
2023-05-20T23:37:10.523Z,101502.28
2023-05-20T23:39:37.380Z,101511.41
2023-05-20T23:42:05.376Z,101505.31
2023-05-20T23:44:32.197Z,101493.72
2023-05-20T23:46:59.199Z,101502.84
2023-05-20T23:49:27.187Z,101502.09
2023-05-20T23:51:54.153Z,101503.06
2023-05-20T23:54:22.824Z,101503.06
2023-05-20T23:56:50.073Z,101504.94
2023-05-20T23:59:16.964Z,101501.56
